EREK1: Neosho River near Erie

                                SHEF ID:       EREK1     NEOSHO R NR ERIE, KS
STATION TYPE:

PRECIP STAGE RIV-FLOW BAT-LOAD
in ft cfs volt
Ccp-Rev Ccp-Rev Ccp-Rev Ccp-Rev
(America/Chicago)
03/12 00:00 ---- 16.64 6780 12.34
03/12 01:00 ---- 16.85 7070 12.33
03/12 02:00 ---- 17.04 7330 12.30
03/12 03:00 ---- 17.23 7600 12.27
03/12 04:00 ---- 17.37 7790 12.23
03/12 05:00 ---- 17.52 7990 12.19
03/12 06:00 ---- 17.63 8140 12.16
03/12 07:00 ---- 17.73 8280 12.14
03/12 08:00 ---- 17.78 8350 12.13
03/12 09:00 ---- 17.74 8290 12.19
03/12 10:00 ---- 17.78 8350 12.53
03/12 11:00 ---- 17.76 8320 13.46
03/12 12:00 ---- 17.72 8270 13.57
03/12 13:00 ---- 17.66 8190 13.42
03/12 14:00 ---- 17.60 8100 13.42
03/12 15:00 ---- 17.52 7990 13.42
03/12 16:00 ---- 17.46 7910 13.42
03/12 17:00 ---- 17.37 7790 13.40
03/12 18:00 ---- 17.27 7650 13.41
03/12 19:00 ---- 17.17 7510 13.37
03/12 20:00 ---- 17.07 7380 13.15
03/12 21:00 ---- 16.97 7240 12.61
03/12 22:00 ---- 16.86 7090 12.47
03/12 23:00 ---- 16.73 6910 12.42
Data processed at Fri 13Mar2026 04:23 GMT

NOTICE: If you are parsing this page

Please convert to using our Data API. Starting early 2026 we will be migrating to: https://water.usace.army.mil with modern pages rendered in JavaScript. When this migration completes you will no longer be able to scrape this page! CWMSDataAPI (CDA)

Timeseries IDs (TSIDs)

TSIDs used from left to right in the data table
ERIE.Precip-Inc.Total.1Hour.1Hour.Ccp-Rev
ERIE.Stage.Inst.1Hour.0.Ccp-Rev
ERIE.Flow.Inst.1Hour.0.Ccp-Rev
ERIE.Volt-Battery Load.Inst.1Hour.0.Ccp-Rev

                            

All information presented herein is the property of the government of the United States of America and may be revised or deleted at any time without prior notice. Dissemination of this information without the expressed written consent of the Public Affairs Office, Tulsa District U.S. Army Corps of Engineers is strictly prohibited. These data are gathered electronically and, as presented, have NOT undergone any form of quality control. These data are NOT guaranteed to be valid or correct.